createdAt,value
2023-05-08T00:00:12.870Z,7.7
2023-05-08T00:03:12.712Z,7.7
2023-05-08T00:06:11.813Z,7.7
2023-05-08T00:09:11.957Z,7.7
2023-05-08T00:12:12.010Z,7.6
2023-05-08T00:15:11.990Z,7.6
2023-05-08T00:18:12.441Z,7.6
2023-05-08T00:21:12.012Z,7.5
2023-05-08T00:24:12.014Z,7.5
2023-05-08T00:27:11.884Z,7.4
2023-05-08T00:30:12.292Z,7.4
2023-05-08T00:33:12.554Z,7.4
2023-05-08T00:36:12.044Z,7.2
2023-05-08T00:39:11.954Z,7.2
2023-05-08T00:42:11.886Z,7.2
2023-05-08T00:45:11.921Z,7.1
2023-05-08T00:48:12.137Z,7.1
2023-05-08T00:51:12.007Z,7.1
2023-05-08T00:54:11.942Z,7.1
2023-05-08T00:57:11.928Z,7
2023-05-08T01:00:12.510Z,7
2023-05-08T01:03:12.942Z,6.9
2023-05-08T01:06:12.021Z,6.9
2023-05-08T01:09:11.963Z,6.9
2023-05-08T01:12:12.050Z,6.9
2023-05-08T01:15:11.966Z,6.7
2023-05-08T01:18:12.253Z,6.7
2023-05-08T01:21:11.866Z,6.7
2023-05-08T01:24:12.001Z,6.6
2023-05-08T01:27:11.956Z,6.6
2023-05-08T01:30:12.379Z,6.6
2023-05-08T01:33:12.725Z,6.5
2023-05-08T01:36:12.033Z,6.5
2023-05-08T01:39:12.033Z,6.5
2023-05-08T01:42:11.926Z,6.4
2023-05-08T01:45:12.138Z,6.4
2023-05-08T01:48:12.278Z,6.4
2023-05-08T01:51:11.907Z,6.2
2023-05-08T01:54:14.839Z,6.2
2023-05-08T01:57:11.926Z,6.1
2023-05-08T02:00:12.443Z,6.1
2023-05-08T02:03:12.400Z,6
2023-05-08T02:06:12.052Z,6
2023-05-08T02:09:12.520Z,6
2023-05-08T02:12:12.036Z,6
2023-05-08T02:15:12.086Z,6
2023-05-08T02:18:12.586Z,5.9
2023-05-08T02:21:11.910Z,5.9
2023-05-08T02:24:11.947Z,5.9
2023-05-08T02:27:11.999Z,5.9
2023-05-08T02:30:12.238Z,5.9
2023-05-08T02:33:12.526Z,5.9
2023-05-08T02:36:11.919Z,5.9
2023-05-08T02:39:11.994Z,5.9
2023-05-08T02:42:11.900Z,5.9
2023-05-08T02:45:12.095Z,5.9
2023-05-08T02:48:12.257Z,5.9
2023-05-08T02:51:11.798Z,5.7
2023-05-08T02:54:12.013Z,5.7
2023-05-08T02:57:11.870Z,5.7
2023-05-08T03:00:12.698Z,5.6
2023-05-08T03:03:12.694Z,5.6
2023-05-08T03:06:11.944Z,5.6
2023-05-08T03:09:11.891Z,5.6
2023-05-08T03:12:11.944Z,5.6
2023-05-08T03:15:11.956Z,5.6
2023-05-08T03:18:12.129Z,5.6
2023-05-08T03:21:11.922Z,5.6
2023-05-08T03:24:11.901Z,5.6
2023-05-08T03:27:11.876Z,5.6
2023-05-08T03:30:12.361Z,5.6
2023-05-08T03:33:12.175Z,5.7
2023-05-08T03:36:11.962Z,5.7
2023-05-08T03:39:11.867Z,5.9
2023-05-08T03:42:11.896Z,6
2023-05-08T03:45:11.910Z,6.1
2023-05-08T03:48:12.228Z,6.1
2023-05-08T03:51:12.075Z,6.2
2023-05-08T03:54:11.913Z,6.4
2023-05-08T03:57:11.821Z,6.5
2023-05-08T04:00:12.628Z,6.6
2023-05-08T04:03:12.712Z,6.9
2023-05-08T04:06:11.977Z,7.1
2023-05-08T04:09:11.871Z,7.2
2023-05-08T04:12:12.002Z,7.4
2023-05-08T04:15:13.372Z,7.6
2023-05-08T04:18:12.329Z,7.9
2023-05-08T04:21:12.025Z,8.1
2023-05-08T04:24:12.117Z,8.3
2023-05-08T04:27:12.045Z,8.5
2023-05-08T04:30:12.058Z,8.6
2023-05-08T04:33:12.469Z,8.9
2023-05-08T04:36:11.959Z,9
2023-05-08T04:39:11.886Z,9.3
2023-05-08T04:42:11.988Z,9.5
2023-05-08T04:45:12.632Z,9.6
2023-05-08T04:48:12.326Z,9.9
2023-05-08T04:51:12.322Z,11
2023-05-08T04:54:12.008Z,12.6
2023-05-08T04:57:11.974Z,12.9
2023-05-08T05:00:12.101Z,13
2023-05-08T05:03:12.470Z,13.6
2023-05-08T05:06:11.914Z,13.8
2023-05-08T05:09:11.878Z,13.9
2023-05-08T05:12:11.981Z,13.8
2023-05-08T05:15:12.268Z,13.5
2023-05-08T05:18:12.381Z,14.1
2023-05-08T05:21:11.927Z,14.9
2023-05-08T05:24:12.064Z,15.9
2023-05-08T05:27:11.853Z,17.1
2023-05-08T05:30:13.157Z,18.3
2023-05-08T05:33:12.494Z,19.1
2023-05-08T05:36:11.988Z,20
2023-05-08T05:39:11.909Z,20.6
2023-05-08T05:42:11.951Z,21.1
2023-05-08T05:45:11.922Z,21.5
2023-05-08T05:48:12.511Z,20.8
2023-05-08T05:51:11.940Z,19.6
2023-05-08T05:54:12.049Z,18.9
2023-05-08T05:57:11.975Z,18.4
2023-05-08T06:00:12.286Z,18.1
2023-05-08T06:03:12.941Z,18
2023-05-08T06:06:11.910Z,18.5
2023-05-08T06:09:11.938Z,19
2023-05-08T06:12:11.871Z,19.1
2023-05-08T06:15:12.242Z,19.1
2023-05-08T06:18:12.361Z,19.6
2023-05-08T06:21:11.985Z,20.6
2023-05-08T06:24:11.872Z,21.5
2023-05-08T06:27:11.924Z,21.9
2023-05-08T06:30:12.022Z,22
2023-05-08T06:33:12.249Z,22.2
2023-05-08T06:36:12.126Z,22.4
2023-05-08T06:39:12.034Z,23.3
2023-05-08T06:42:14.819Z,24.3
2023-05-08T06:45:12.606Z,25
2023-05-08T06:48:12.561Z,25.3
2023-05-08T06:51:11.904Z,25
2023-05-08T06:54:11.938Z,25.1
2023-05-08T06:57:13.868Z,25.5
2023-05-08T07:00:13.412Z,26
2023-05-08T07:03:12.248Z,26.2
2023-05-08T07:06:11.894Z,26.4
2023-05-08T07:09:12.052Z,26.5
2023-05-08T07:12:11.978Z,26.6
2023-05-08T07:15:36.552Z,27
2023-05-08T07:18:12.382Z,26.5
2023-05-08T07:21:11.932Z,26.6
2023-05-08T07:24:11.872Z,26.1
2023-05-08T07:27:11.867Z,24.9
2023-05-08T07:30:12.025Z,24.5
2023-05-08T07:33:12.197Z,24.4
2023-05-08T07:36:11.991Z,24.7
2023-05-08T07:39:11.903Z,25.1
2023-05-08T07:42:11.975Z,26.1
2023-05-08T07:45:12.249Z,26.2
2023-05-08T07:48:12.354Z,26.1
2023-05-08T07:51:12.052Z,26
2023-05-08T07:54:11.850Z,26.5
2023-05-08T07:57:11.927Z,26.8
2023-05-08T08:00:12.156Z,28.1
2023-05-08T08:03:12.592Z,29.6
2023-05-08T08:06:11.861Z,31
2023-05-08T08:09:12.004Z,32.2
2023-05-08T08:12:11.942Z,33
2023-05-08T08:15:12.356Z,33.5
2023-05-08T08:18:12.417Z,33.7
2023-05-08T08:21:11.965Z,34
2023-05-08T08:24:11.989Z,33.6
2023-05-08T08:27:11.999Z,33
2023-05-08T08:30:29.474Z,32.6
2023-05-08T08:33:12.242Z,32.9
2023-05-08T08:36:11.963Z,33
2023-05-08T08:39:16.021Z,33.6
2023-05-08T08:42:12.111Z,34.4
2023-05-08T08:45:12.285Z,34.9
2023-05-08T08:48:12.412Z,34.6
2023-05-08T08:51:12.006Z,35
2023-05-08T08:54:11.894Z,35.4
2023-05-08T08:57:11.921Z,34.6
2023-05-08T09:00:12.065Z,35.1
2023-05-08T09:03:13.050Z,35.1
2023-05-08T09:06:11.954Z,35.2
2023-05-08T09:09:11.862Z,35.6
2023-05-08T09:12:11.824Z,36.1
2023-05-08T09:15:12.539Z,36.7
2023-05-08T09:18:12.564Z,36.1
2023-05-08T09:21:11.962Z,36.4
2023-05-08T09:24:11.911Z,36.9
2023-05-08T09:27:11.849Z,36.9
2023-05-08T09:30:12.254Z,36
2023-05-08T09:33:12.461Z,36.1
2023-05-08T09:36:11.882Z,36.6
2023-05-08T09:39:11.901Z,37.1
2023-05-08T09:42:12.041Z,37.4
2023-05-08T09:45:12.233Z,37.4
2023-05-08T09:48:12.310Z,37.2
2023-05-08T09:51:11.804Z,37.4
2023-05-08T09:54:11.989Z,37.4
2023-05-08T09:57:11.962Z,37.6
2023-05-08T10:00:12.454Z,37.7
2023-05-08T10:03:12.752Z,37.6
2023-05-08T10:06:11.971Z,37.6
2023-05-08T10:09:11.835Z,37.7
2023-05-08T10:12:11.863Z,37.7
2023-05-08T10:15:11.877Z,37.9
2023-05-08T10:18:12.486Z,38.1
2023-05-08T10:21:11.867Z,38.1
2023-05-08T10:24:11.999Z,38
2023-05-08T10:30:12.189Z,38.4
2023-05-08T10:33:12.339Z,38.6
2023-05-08T10:36:12.144Z,38.5
2023-05-08T10:39:12.003Z,38.5
2023-05-08T10:42:11.924Z,38.6
2023-05-08T10:45:11.906Z,38.6
2023-05-08T10:48:12.479Z,38.6
2023-05-08T10:51:11.923Z,38.6
2023-05-08T10:54:11.841Z,38.7
2023-05-08T10:57:11.830Z,39
2023-05-08T11:00:12.545Z,39.1
2023-05-08T11:03:35.647Z,39.2
2023-05-08T11:06:11.956Z,39.5
2023-05-08T11:09:12.197Z,39.6
2023-05-08T11:12:12.311Z,39.6
2023-05-08T11:15:12.067Z,39.4
2023-05-08T11:18:12.311Z,39.4
2023-05-08T11:21:11.920Z,39.6
2023-05-08T11:24:11.993Z,39.6
2023-05-08T11:27:11.904Z,39.7
2023-05-08T11:30:12.233Z,39.7
2023-05-08T11:33:12.639Z,39.7
2023-05-08T11:36:11.999Z,39.9
2023-05-08T11:39:12.137Z,40
2023-05-08T11:42:12.051Z,40.2
2023-05-08T11:45:11.943Z,40.4
2023-05-08T11:48:12.388Z,40.5
2023-05-08T11:51:11.861Z,40.4
2023-05-08T11:54:11.929Z,40.2
2023-05-08T11:57:12.037Z,40.1
2023-05-08T12:00:12.432Z,40.1
2023-05-08T12:03:13.099Z,40.4
2023-05-08T12:06:12.041Z,40.8
2023-05-08T12:09:11.958Z,41
2023-05-08T12:12:11.927Z,41
2023-05-08T12:15:11.874Z,41
2023-05-08T12:18:12.400Z,41
2023-05-08T12:21:12.232Z,41
2023-05-08T12:24:11.856Z,41
2023-05-08T12:27:12.097Z,41
2023-05-08T12:30:12.221Z,41
2023-05-08T12:33:12.469Z,41
2023-05-08T12:36:11.995Z,41
2023-05-08T12:39:12.164Z,41.2
2023-05-08T12:42:12.490Z,41.5
2023-05-08T12:45:11.811Z,41.6
2023-05-08T12:48:12.375Z,41.6
2023-05-08T12:51:11.987Z,41.5
2023-05-08T12:54:11.935Z,41
2023-05-08T12:57:11.886Z,40.9
2023-05-08T13:00:16.912Z,40.8
2023-05-08T13:03:12.460Z,40.9
2023-05-08T13:06:11.960Z,41
2023-05-08T13:09:11.977Z,41.2
2023-05-08T13:12:12.123Z,41.4
2023-05-08T13:15:11.946Z,41.2
2023-05-08T13:18:12.720Z,41.2
2023-05-08T13:21:11.857Z,41.1
2023-05-08T13:24:11.959Z,41.1
2023-05-08T13:27:12.255Z,41
2023-05-08T13:30:12.385Z,40.9
2023-05-08T13:33:12.449Z,40.8
2023-05-08T13:36:11.958Z,40.6
2023-05-08T13:39:12.108Z,40.6
2023-05-08T13:42:11.979Z,40.5
2023-05-08T13:45:12.126Z,40.2
2023-05-08T13:48:12.528Z,40.2
2023-05-08T13:51:12.005Z,40.4
2023-05-08T13:54:11.965Z,40.2
2023-05-08T13:57:11.836Z,40.5
2023-05-08T14:00:12.005Z,40.6
2023-05-08T14:03:12.535Z,40.6
2023-05-08T14:06:11.979Z,40.6
2023-05-08T14:09:11.941Z,40.5
2023-05-08T14:12:11.913Z,40.1
2023-05-08T14:15:12.277Z,40.1
2023-05-08T14:18:12.453Z,40.4
2023-05-08T14:21:11.869Z,40.4
2023-05-08T14:24:11.913Z,40.4
2023-05-08T14:27:12.055Z,40.2
2023-05-08T14:30:12.390Z,40.4
2023-05-08T14:33:12.512Z,40.2
2023-05-08T14:36:11.931Z,39.7
2023-05-08T14:39:12.213Z,39.6
2023-05-08T14:42:34.463Z,39.4
2023-05-08T14:45:12.671Z,39.4
2023-05-08T14:48:12.512Z,39.1
2023-05-08T14:51:11.950Z,39
2023-05-08T14:54:13.310Z,38.9
2023-05-08T14:57:12.100Z,39
2023-05-08T15:00:11.901Z,38.9
2023-05-08T15:03:12.866Z,38.9
2023-05-08T15:06:11.904Z,38.5
2023-05-08T15:09:12.082Z,38.5
2023-05-08T15:12:11.972Z,38.5
2023-05-08T15:15:16.180Z,38.4
2023-05-08T15:18:12.202Z,38.2
2023-05-08T15:21:11.919Z,38
2023-05-08T15:24:11.990Z,37.7
2023-05-08T15:27:11.917Z,37.6
2023-05-08T15:30:12.061Z,37.4
2023-05-08T15:33:12.333Z,37.2
2023-05-08T15:36:11.996Z,37.2
2023-05-08T15:39:11.976Z,37.2
2023-05-08T15:42:12.115Z,37
2023-05-08T15:45:12.090Z,36.9
2023-05-08T15:48:12.210Z,36.5
2023-05-08T15:51:11.964Z,36.2
2023-05-08T15:54:12.016Z,36
2023-05-08T15:57:12.156Z,35.7
2023-05-08T16:00:12.032Z,35.5
2023-05-08T16:03:12.822Z,35.4
2023-05-08T16:06:12.435Z,35.4
2023-05-08T16:09:12.036Z,35.2
2023-05-08T16:12:11.884Z,35.1
2023-05-08T16:15:12.148Z,34.7
2023-05-08T16:18:12.384Z,34.6
2023-05-08T16:21:12.223Z,34.4
2023-05-08T16:24:11.874Z,34
2023-05-08T16:27:12.023Z,33.7
2023-05-08T16:30:12.286Z,33.4
2023-05-08T16:33:12.558Z,33.1
2023-05-08T16:36:12.037Z,32.7
2023-05-08T16:39:11.954Z,32.6
2023-05-08T16:42:12.241Z,32.5
2023-05-08T16:45:12.023Z,32.2
2023-05-08T16:48:12.381Z,32
2023-05-08T16:51:11.829Z,31.8
2023-05-08T16:54:11.933Z,31.4
2023-05-08T16:57:11.900Z,31.1
2023-05-08T17:00:12.106Z,30.9
2023-05-08T17:03:12.664Z,30.6
2023-05-08T17:06:11.900Z,30.3
2023-05-08T17:09:11.972Z,29.8
2023-05-08T17:12:11.975Z,28.5
2023-05-08T17:15:11.947Z,25.8
2023-05-08T17:18:12.460Z,23.4
2023-05-08T17:21:11.998Z,22
2023-05-08T17:24:12.018Z,21
2023-05-08T17:27:11.838Z,20.4
2023-05-08T17:30:12.440Z,19.9
2023-05-08T17:33:12.508Z,19.6
2023-05-08T17:36:12.056Z,19.3
2023-05-08T17:39:11.787Z,19
2023-05-08T17:42:11.885Z,18.8
2023-05-08T17:45:11.912Z,18.6
2023-05-08T17:48:12.410Z,18.4
2023-05-08T17:51:11.906Z,18.3
2023-05-08T17:54:12.021Z,18
2023-05-08T17:57:12.029Z,17.9
2023-05-08T18:00:12.229Z,17.6
2023-05-08T18:03:13.044Z,17.5
2023-05-08T18:06:11.890Z,17.2
2023-05-08T18:09:11.884Z,17.1
2023-05-08T18:12:11.935Z,16.9
2023-05-08T18:15:11.999Z,16.8
2023-05-08T18:18:12.322Z,16.5
2023-05-08T18:21:11.962Z,16.4
2023-05-08T18:24:11.946Z,16.1
2023-05-08T18:27:11.951Z,16
2023-05-08T18:30:12.185Z,15.9
2023-05-08T18:33:12.176Z,15.6
2023-05-08T18:36:12.217Z,15.5
2023-05-08T18:39:11.916Z,15.4
2023-05-08T18:42:11.999Z,15.3
2023-05-08T18:45:12.053Z,15.1
2023-05-08T18:48:12.280Z,15
2023-05-08T18:51:11.789Z,14.9
2023-05-08T18:54:12.046Z,14.7
2023-05-08T18:57:11.901Z,14.6
2023-05-08T19:00:11.962Z,14.5
2023-05-08T19:03:12.930Z,14.4
2023-05-08T19:06:11.817Z,14.1
2023-05-08T19:09:11.772Z,14
2023-05-08T19:12:11.926Z,13.9
2023-05-08T19:15:12.019Z,13.8
2023-05-08T19:18:12.265Z,13.6
2023-05-08T19:21:11.888Z,13.5
2023-05-08T19:24:11.869Z,13.4
2023-05-08T19:27:11.931Z,13.3
2023-05-08T19:30:12.222Z,13.1
2023-05-08T19:33:11.992Z,13.1
2023-05-08T19:36:11.868Z,12.9
2023-05-08T19:39:11.959Z,12.5
2023-05-08T19:42:11.912Z,12.4
2023-05-08T19:45:11.962Z,12.1
2023-05-08T19:48:24.607Z,11.9
2023-05-08T19:51:12.160Z,11.6
2023-05-08T19:54:12.025Z,11.5
2023-05-08T19:57:11.905Z,11.3
2023-05-08T20:00:12.115Z,11
2023-05-08T20:03:12.654Z,10.9
2023-05-08T20:06:13.236Z,10.6
2023-05-08T20:09:12.628Z,10.5
2023-05-08T20:12:12.028Z,10.4
2023-05-08T20:15:12.078Z,10.3
2023-05-08T20:18:12.383Z,10.1
2023-05-08T20:21:11.913Z,10.1
2023-05-08T20:24:11.930Z,10
2023-05-08T20:27:11.863Z,9.9
2023-05-08T20:30:12.061Z,9.9
2023-05-08T20:33:12.611Z,9.8
2023-05-08T20:36:11.905Z,9.8
2023-05-08T20:39:11.932Z,9.6
2023-05-08T20:42:11.877Z,9.6
2023-05-08T20:45:12.147Z,9.6
2023-05-08T20:48:12.213Z,9.5
2023-05-08T20:51:12.246Z,9.5
2023-05-08T20:54:11.981Z,9.5
2023-05-08T20:57:11.930Z,9.4
2023-05-08T21:00:12.260Z,9.3
2023-05-08T21:03:12.286Z,9.3
2023-05-08T21:06:11.982Z,9.3
2023-05-08T21:09:14.598Z,9.1
2023-05-08T21:12:11.841Z,9.1
2023-05-08T21:15:11.932Z,9
2023-05-08T21:18:12.191Z,9
2023-05-08T21:21:11.917Z,8.9
2023-05-08T21:24:11.876Z,8.8
2023-05-08T21:27:12.015Z,8.6
2023-05-08T21:30:12.032Z,8.6
2023-05-08T21:33:11.992Z,8.5
2023-05-08T21:36:11.884Z,8.4
2023-05-08T21:39:11.822Z,8.4
2023-05-08T21:42:11.788Z,8.3
2023-05-08T21:45:12.096Z,8.3
2023-05-08T21:48:12.146Z,8.3
2023-05-08T21:51:11.870Z,8.1
2023-05-08T21:54:11.857Z,8
2023-05-08T21:57:11.847Z,8
2023-05-08T22:00:12.300Z,8
2023-05-08T22:03:12.720Z,7.9
2023-05-08T22:06:11.861Z,7.9
2023-05-08T22:09:11.910Z,7.7
2023-05-08T22:12:11.872Z,7.6
2023-05-08T22:15:35.157Z,7.5
2023-05-08T22:18:12.207Z,7.4
2023-05-08T22:21:11.860Z,7.4
2023-05-08T22:24:11.825Z,7.2
2023-05-08T22:27:11.879Z,7.1
2023-05-08T22:30:12.129Z,7.1
2023-05-08T22:33:12.291Z,7
2023-05-08T22:36:11.939Z,7
2023-05-08T22:39:11.909Z,6.9
2023-05-08T22:42:11.940Z,7
2023-05-08T22:45:11.943Z,7
2023-05-08T22:48:12.348Z,7
2023-05-08T22:51:11.852Z,7
2023-05-08T22:54:11.905Z,7
2023-05-08T22:57:11.866Z,7
2023-05-08T23:00:12.025Z,6.9
2023-05-08T23:03:12.218Z,6.9
2023-05-08T23:06:11.888Z,6.9
2023-05-08T23:09:11.890Z,6.7
2023-05-08T23:12:11.962Z,6.7
2023-05-08T23:15:12.078Z,6.7
2023-05-08T23:18:12.313Z,6.7
2023-05-08T23:21:11.913Z,6.7
2023-05-08T23:24:11.975Z,6.9
2023-05-08T23:27:11.907Z,6.9
2023-05-08T23:30:12.151Z,6.9
2023-05-08T23:33:12.218Z,6.9
2023-05-08T23:36:11.952Z,6.9
2023-05-08T23:39:11.982Z,7
2023-05-08T23:42:11.869Z,7
2023-05-08T23:45:12.181Z,7.1
2023-05-08T23:48:12.081Z,7.1
2023-05-08T23:51:11.939Z,7.1
2023-05-08T23:54:11.942Z,7.1
2023-05-08T23:57:11.883Z,7.2
